My Meet Scores
Lydia Moses, Stars Gymnastics Training Center-Houston - MyMeetScores.com
Top100 | Top Teams | Upcoming Meets | Completed Meets | Latest | Add Scores | Help| Support | Bookmark and Share

Lydia Moses, Stars Gymnastics Training Center-Houston
Personal Bests
LevelVault BarsBeamFloorAA
39.8009.300 9.4509.35037.700
49.3009.600 9.5509.50037.350
59.4009.200 9.4008.85035.800
69.3509.625 8.6009.35036.850
79.1008.050 8.1508.80025.800
3P9.8009.325 9.1509.30037.250
5P9.2008.550 8.2508.80034.800
Meet Scores
Date Meet Team Session Level Division Vault Bars Beam Floor AA
2017-02-16 WOGA Classic 2017 - Gym B Stars Gymnastics Training Center-Houston 3B 7 Jr B 9.100 19T 8.050 19 0.000 20 8.650 19 25.800 20
2017-01-19 2017 Kim Zmeskal's Texas Prime Meet Stars Gymnastics Training Center-Houston A5 7 Jr C 8.350 13 0.000 14 0.000 12T 8.800 10 17.150 14
2017-01-06 Texas Shootout Stars Gymnastics Training Center-Houston 9 7 Jr B 8.150 13 0.000 12T 8.150 12 8.650 11 24.950 12
2016-03-04 2016 Texas Level 6 State Championships Stars Gymnastics Training Center-Houston 5 6 Jr C2 9.350 9T 9.625 2 8.525 16T 9.350 8 36.850 11
2016-02-26 2016 Charleston Cup Stars Gymnastics Training Center-Houston W02 6 Jr 0.000 15T 0.000 15T 0.000 15T 0.000 14T 0.000 15T
2016-01-22 Sand Dollar/Whitlow Invitational Stars Gymnastics Training Center-Houston E04 6 Jr B 9.225 6 9.450 3T 8.600 16 9.150 11T 36.425 8
2016-01-15 Ricky Deci Invitational Stars Gymnastics Training Center-Houston 8 6 Jr B 9.150 8 9.200 6T 7.825 14 8.875 11 35.050 12
2015-11-14 2015 Texas Level 5 State Championships Stars Gymnastics Training Center-Houston 4 5 Jr.C3 9.225 9T 9.200 9T 9.000 8T 8.050 17 35.475 11T
2015-09-25 District Qualifier Stars Gymnastics Training Center-Houston 1 5 JR B 9.325 5 8.425 14T 9.400 6T 8.650 18 35.800 12T
2015-09-11 2015 Texas Classic Stars Gymnastics Training Center-Houston 2 5P Jr B 9.200 14T 8.550 18* 8.250 50T 8.800 40T 34.800 30T
2015-08-28 Pearland Elite District Qualifier Stars Gymnastics Training Center-Houston 1 5 JrB 9.400 7 8.500 6T 8.625 8T 8.850 9 35.375 6
2015-01-29 Chows Challenge Stars Gymnastics Training Center-Houston A1 4 Jr C 8.700 10 9.600 3 9.550 2 9.500 9T 37.350 4
2014-11-22 2014 Texas Level 4 State Championships Stars Gymnastics Training Center-Houston 1 4 Jr C2 8.500 13* 9.300 10 8.550 20 9.250 11T 35.600 16T
2014-11-01 2014 Texas Level 4 South State Championships Stars Gymnastics Training Center-Houston 4 4 JRC1 9.000 9 9.500 3 9.075 11 9.350 4 36.925 5
2014-10-18 Level 1,2 And 4 District Championships Stars Gymnastics Training Center-Houston 2 4 Jr D 9.225 9 8.900 11 8.800 11T 9.200 3 36.125 8
2014-09-26 District Qualifier Stars Gymnastics Training Center-Houston 1 4 Jr C 7.800 14 9.350 3 9.300 1 9.325 8 35.775 6
2014-09-05 Pearland Elite District Qualifier Stars Gymnastics Training Center-Houston All 4 Jr.C 8.350 5 9.000 4 8.900 7 8.900 6 35.150 4
2014-01-31 Houston National Invitational Kinetics Gymnastics and Cheer M3 4 Jr A 8.000 16T 9.400 6 8.300 10T 8.700 11 34.400 11
2013-11-08 2013 Texas Level 3 South State Kinetics Gymnastics and Cheer 4 3 Jr C2 9.800 2T 9.100 9T 9.450 8 9.350 10 37.700 5
2013-10-12 2013 District V Championships Kinetics Gymnastics and Cheer 3P JR B 9.400 2 9.325 3 9.150 14 9.250 16 37.125 8
2013-10-04 Judges Cup Kinetics Gymnastics and Cheer 6A 3P Jr. D 9.325 13T 9.075 6T 9.150 1 9.025 9 36.575 6
2013-09-28 District Qualifier Kinetics Gymnastics and Cheer 5 3 Jr B 9.100 8T 9.300 6T 8.700 6T 8.900 11 36.000 6
2013-09-20 RowlandBallard Tx USAG District 5 Qualifier Kinetics Gymnastics and Cheer 4 3 Jr B 9.600 2 9.200 8T 9.200 2T 8.950 9T 36.950 2T
2013-09-07 District Qualifier Kinetics Gymnastics and Cheer 3P JR B 9.800 1 9.200 4 8.950 7 9.300 2 37.250 3
2013-08-24 District 5 Qualifier Kinetics Gymnastics and Cheer 2 3 Jr B 9.000 9T 9.200 7T 9.250 6 9.300 6T 36.750 5
2013-01-12 Ricky Deci Invitational Kinetics Gymnastics and Cheer 5 4 Ch 6-8 9.300 5T 8.900 18T 8.800 17T 8.800 32T 35.800 21T

www.lazysuits.com